createdAt,value
2022-10-18T00:01:15.206Z,14.70
2022-10-18T00:06:16.996Z,15.97
2022-10-18T00:08:45.479Z,16.00
2022-10-18T00:11:14.005Z,16.93
2022-10-18T00:13:42.586Z,17.40
2022-10-18T00:16:17.047Z,16.20
2022-10-18T00:18:46.477Z,15.00
2022-10-18T00:21:20.864Z,15.20
2022-10-18T00:23:50.648Z,14.70
2022-10-18T00:26:28.019Z,15.33
2022-10-18T00:29:00.595Z,14.93
2022-10-18T00:31:34.117Z,16.00
2022-10-18T00:34:08.326Z,15.03
2022-10-18T00:36:37.070Z,15.03
2022-10-18T00:39:07.568Z,15.30
2022-10-18T00:41:38.838Z,15.30
2022-10-18T00:44:11.991Z,16.10
2022-10-18T00:46:46.311Z,15.00
2022-10-18T00:49:23.135Z,16.07
2022-10-18T00:52:02.752Z,15.50
2022-10-18T00:54:34.136Z,15.97
2022-10-18T00:57:03.442Z,15.10
2022-10-18T00:59:31.859Z,14.87
2022-10-18T01:02:00.467Z,15.50
2022-10-18T01:04:28.910Z,15.10
2022-10-18T01:07:22.070Z,14.70
2022-10-18T01:10:10.919Z,15.37
2022-10-18T01:13:04.997Z,15.40
2022-10-18T01:15:42.950Z,14.90
2022-10-18T01:18:23.837Z,15.17
2022-10-18T01:21:26.113Z,14.80
2022-10-18T01:24:26.283Z,16.20
2022-10-18T01:27:30.128Z,17.33
2022-10-18T01:30:04.990Z,17.97
2022-10-18T01:32:41.923Z,16.30
2022-10-18T01:35:17.632Z,16.90
2022-10-18T01:37:48.501Z,22.73
2022-10-18T01:40:20.548Z,25.60
2022-10-18T01:42:50.564Z,23.70
2022-10-18T01:45:22.179Z,23.17
2022-10-18T01:47:52.052Z,22.67
2022-10-18T01:50:34.775Z,20.90
2022-10-18T01:53:04.125Z,17.97
2022-10-18T01:55:46.665Z,17.00
2022-10-18T01:58:39.529Z,18.33
2022-10-18T02:01:19.378Z,18.80
2022-10-18T02:03:52.705Z,18.60
2022-10-18T02:06:36.625Z,19.77
2022-10-18T02:09:39.403Z,17.53
2022-10-18T02:12:12.983Z,17.87
2022-10-18T02:14:44.185Z,18.00
2022-10-18T02:17:15.882Z,19.67
2022-10-18T02:19:56.884Z,19.33
2022-10-18T02:22:32.822Z,18.80
2022-10-18T02:25:06.590Z,19.20
2022-10-18T02:27:35.112Z,19.13
2022-10-18T02:30:03.645Z,19.90
2022-10-18T02:32:48.080Z,20.10
2022-10-18T02:35:25.453Z,19.40
2022-10-18T02:37:56.212Z,21.00
2022-10-18T02:40:25.490Z,18.90
2022-10-18T02:42:59.213Z,19.00
2022-10-18T02:45:28.238Z,19.43
2022-10-18T02:47:56.611Z,19.87
2022-10-18T02:50:25.133Z,23.30
2022-10-18T02:52:53.528Z,22.50
2022-10-18T02:55:22.040Z,21.60
2022-10-18T02:57:50.534Z,20.43
2022-10-18T03:00:19.154Z,20.60
2022-10-18T03:02:47.577Z,20.97
2022-10-18T03:05:16.086Z,20.37
2022-10-18T03:07:44.486Z,21.43
2022-10-18T03:10:12.918Z,21.73
2022-10-18T03:12:41.277Z,20.03
2022-10-18T03:15:09.946Z,21.17
2022-10-18T03:17:38.433Z,23.30
2022-10-18T03:20:07.814Z,23.83
2022-10-18T03:22:36.382Z,25.17
2022-10-18T03:25:04.925Z,24.97
2022-10-18T03:27:33.636Z,25.00
2022-10-18T03:30:02.680Z,24.20
2022-10-18T03:32:31.379Z,24.20
2022-10-18T03:35:00.033Z,23.83
2022-10-18T03:37:28.427Z,24.23
2022-10-18T03:39:56.933Z,24.90
2022-10-18T03:42:25.396Z,23.97
2022-10-18T03:44:53.842Z,27.93
2022-10-18T03:47:22.363Z,26.50
2022-10-18T03:49:53.237Z,34.40
2022-10-18T03:52:24.920Z,41.90
2022-10-18T03:54:53.521Z,56.10
2022-10-18T03:57:22.035Z,66.17
2022-10-18T03:59:50.484Z,73.70
2022-10-18T04:02:19.108Z,79.87
2022-10-18T04:04:47.457Z,73.43
2022-10-18T04:07:15.934Z,76.43
2022-10-18T04:09:44.408Z,67.43
2022-10-18T04:12:12.791Z,66.30
2022-10-18T04:14:41.208Z,67.40
2022-10-18T04:17:10.095Z,64.53
2022-10-18T04:19:38.520Z,68.80
2022-10-18T04:22:06.879Z,80.83
2022-10-18T04:24:35.276Z,77.47
2022-10-18T04:27:03.614Z,56.80
2022-10-18T04:29:31.988Z,45.43
2022-10-18T04:32:01.406Z,36.80
2022-10-18T04:34:29.929Z,31.87
2022-10-18T04:36:58.297Z,29.43
2022-10-18T04:39:26.749Z,28.43
2022-10-18T04:41:55.135Z,28.80
2022-10-18T04:44:23.922Z,27.60
2022-10-18T04:46:52.312Z,26.23
2022-10-18T04:49:20.893Z,23.83
2022-10-18T04:51:49.254Z,26.33
2022-10-18T04:54:17.864Z,30.33
2022-10-18T04:56:46.227Z,33.53
2022-10-18T04:59:14.576Z,36.07
2022-10-18T05:01:43.075Z,31.93
2022-10-18T05:04:11.548Z,30.10
2022-10-18T05:06:39.994Z,29.20
2022-10-18T05:09:08.517Z,29.10
2022-10-18T05:11:36.946Z,28.80
2022-10-18T05:14:06.215Z,25.53
2022-10-18T05:16:34.845Z,25.33
2022-10-18T05:19:04.494Z,25.67
2022-10-18T05:21:33.019Z,24.70
2022-10-18T05:24:01.478Z,27.10
2022-10-18T05:26:29.897Z,25.83
2022-10-18T05:28:58.561Z,25.70
2022-10-18T05:31:27.331Z,24.93
2022-10-18T05:33:55.895Z,26.37
2022-10-18T05:36:26.398Z,24.17
2022-10-18T05:38:54.964Z,27.17
2022-10-18T05:41:23.655Z,25.27
2022-10-18T05:43:52.167Z,24.50
2022-10-18T05:46:20.689Z,27.50
2022-10-18T05:48:53.282Z,27.93
2022-10-18T05:51:21.816Z,28.93
2022-10-18T05:53:50.184Z,27.93
2022-10-18T05:56:18.626Z,27.73
2022-10-18T05:58:52.230Z,27.47
2022-10-18T06:01:20.832Z,30.97
2022-10-18T06:03:49.288Z,28.10
2022-10-18T06:06:18.244Z,29.87
2022-10-18T06:08:49.852Z,29.13
2022-10-18T06:11:20.665Z,30.23
2022-10-18T06:13:51.013Z,27.77
2022-10-18T06:16:23.158Z,28.73
2022-10-18T06:18:54.728Z,30.20
2022-10-18T06:21:24.529Z,31.13
2022-10-18T06:23:54.545Z,29.73
2022-10-18T06:26:23.566Z,30.80
2022-10-18T06:28:52.302Z,30.30
2022-10-18T06:31:22.168Z,29.40
2022-10-18T06:33:50.910Z,32.70
2022-10-18T06:36:22.878Z,29.93
2022-10-18T06:38:52.082Z,31.07
2022-10-18T06:41:21.206Z,30.03
2022-10-18T06:43:54.463Z,30.20
2022-10-18T06:46:22.843Z,30.40
2022-10-18T06:48:51.319Z,32.07
2022-10-18T06:51:19.853Z,33.37
2022-10-18T06:53:59.729Z,32.70
2022-10-18T06:56:37.038Z,30.87
2022-10-18T06:59:05.923Z,32.10
2022-10-18T07:01:34.559Z,29.50
2022-10-18T07:04:03.580Z,30.70
2022-10-18T07:06:32.087Z,32.13
2022-10-18T07:09:01.017Z,30.47
2022-10-18T07:11:29.674Z,34.80
2022-10-18T07:14:03.874Z,33.20
2022-10-18T07:16:33.462Z,31.00
2022-10-18T07:19:02.070Z,30.17
2022-10-18T07:21:30.644Z,29.63
2022-10-18T07:23:59.135Z,30.03
2022-10-18T07:26:32.764Z,29.50
2022-10-18T07:29:06.314Z,31.90
2022-10-18T07:31:34.954Z,32.13
2022-10-18T07:34:06.475Z,30.50
2022-10-18T07:36:35.390Z,32.53
2022-10-18T07:39:04.094Z,31.93
2022-10-18T07:41:35.535Z,27.57
2022-10-18T07:44:05.482Z,29.03
2022-10-18T07:46:34.102Z,27.73
2022-10-18T07:49:03.134Z,25.20
2022-10-18T07:51:33.673Z,25.90
2022-10-18T07:54:02.096Z,25.10
2022-10-18T07:56:30.584Z,24.20
2022-10-18T07:58:59.103Z,24.53
2022-10-18T08:01:27.686Z,26.10
2022-10-18T08:03:56.189Z,24.30
2022-10-18T08:06:25.277Z,25.47
2022-10-18T08:08:53.794Z,24.37
2022-10-18T08:11:25.160Z,22.70
2022-10-18T08:13:54.785Z,24.83
2022-10-18T08:16:29.003Z,23.73
2022-10-18T08:18:59.769Z,25.00
2022-10-18T08:21:28.689Z,25.83
2022-10-18T08:23:57.225Z,24.20
2022-10-18T08:26:25.950Z,24.53
2022-10-18T08:29:10.167Z,23.13
2022-10-18T08:31:39.015Z,23.60
2022-10-18T08:34:07.478Z,26.50
2022-10-18T08:36:35.976Z,25.67
2022-10-18T08:39:04.737Z,26.30
2022-10-18T08:41:54.729Z,25.83
2022-10-18T08:44:34.085Z,23.33
2022-10-18T08:47:07.920Z,22.87
2022-10-18T08:49:46.564Z,22.50
2022-10-18T08:52:49.049Z,27.50
2022-10-18T08:55:30.010Z,24.50
2022-10-18T08:57:59.462Z,23.30
2022-10-18T09:00:35.364Z,23.77
2022-10-18T09:03:25.367Z,24.93
2022-10-18T09:06:02.337Z,23.23
2022-10-18T09:09:09.559Z,27.40
2022-10-18T09:12:16.514Z,24.93
2022-10-18T09:15:15.709Z,24.50
2022-10-18T09:17:51.434Z,27.10
2022-10-18T09:20:27.338Z,25.30
2022-10-18T09:23:16.987Z,26.30
2022-10-18T09:26:12.155Z,25.47
2022-10-18T09:28:46.316Z,28.40
2022-10-18T09:31:35.943Z,28.43
2022-10-18T09:34:12.686Z,30.13
2022-10-18T09:36:41.376Z,30.67
2022-10-18T09:39:21.014Z,32.63
2022-10-18T09:42:15.697Z,32.20
2022-10-18T09:45:00.396Z,30.87
2022-10-18T09:47:45.736Z,31.07
2022-10-18T09:50:47.086Z,30.63
2022-10-18T09:53:27.981Z,34.63
2022-10-18T09:56:10.616Z,35.77
2022-10-18T09:58:52.104Z,35.30
2022-10-18T10:01:24.490Z,30.67
2022-10-18T10:03:53.490Z,34.40
2022-10-18T10:06:35.440Z,34.00
2022-10-18T10:09:31.890Z,38.07
2022-10-18T10:12:00.511Z,37.77
2022-10-18T10:14:31.194Z,32.30
2022-10-18T10:17:04.232Z,33.17
2022-10-18T10:19:58.714Z,36.00
2022-10-18T10:22:39.620Z,34.23
2022-10-18T10:25:08.834Z,32.73
2022-10-18T10:27:47.572Z,32.37
2022-10-18T10:30:28.257Z,32.90
2022-10-18T10:32:58.040Z,30.50
2022-10-18T10:38:30.074Z,32.10
2022-10-18T10:40:59.215Z,32.90
2022-10-18T10:43:38.726Z,32.87
2022-10-18T10:46:14.925Z,33.40
2022-10-18T10:49:04.160Z,36.00
2022-10-18T10:51:42.910Z,29.53
2022-10-18T10:54:21.675Z,32.17
2022-10-18T10:57:13.206Z,32.23
2022-10-18T10:59:47.638Z,33.23
2022-10-18T11:02:18.985Z,37.23
2022-10-18T11:04:52.552Z,35.97
2022-10-18T11:07:36.529Z,36.63
2022-10-18T11:10:19.229Z,32.43
2022-10-18T11:13:23.950Z,36.83
2022-10-18T11:15:58.374Z,33.10
2022-10-18T11:18:38.541Z,32.30
2022-10-18T11:21:22.099Z,31.53
2022-10-18T11:23:50.697Z,33.53
2022-10-18T11:26:48.873Z,31.50
2022-10-18T11:29:42.929Z,36.10
2022-10-18T11:32:32.585Z,37.67
2022-10-18T11:35:23.880Z,40.33
2022-10-18T11:37:54.993Z,48.10
2022-10-18T11:40:32.439Z,47.33
2022-10-18T11:43:16.165Z,42.53
2022-10-18T11:46:09.080Z,48.73
2022-10-18T11:48:58.838Z,44.83
2022-10-18T11:52:07.206Z,52.30
2022-10-18T11:54:48.656Z,48.77
2022-10-18T11:57:44.014Z,45.50
2022-10-18T12:00:43.633Z,44.73
2022-10-18T12:03:33.700Z,45.03
2022-10-18T12:06:07.672Z,45.60
2022-10-18T12:08:53.899Z,45.10
2022-10-18T12:11:35.134Z,43.03
2022-10-18T12:14:24.134Z,49.07
2022-10-18T12:17:06.784Z,43.70
2022-10-18T12:19:43.635Z,43.17
2022-10-18T12:22:39.228Z,49.83
2022-10-18T12:25:15.856Z,43.80
2022-10-18T12:28:04.759Z,45.57
2022-10-18T12:30:58.996Z,50.90
2022-10-18T12:33:33.063Z,55.67
2022-10-18T12:36:04.213Z,54.90
2022-10-18T12:38:38.889Z,56.20
2022-10-18T12:41:07.776Z,45.13
2022-10-18T12:43:39.217Z,45.20
2022-10-18T12:46:13.598Z,48.00
2022-10-18T12:49:03.934Z,48.63
2022-10-18T12:51:32.667Z,44.87
2022-10-18T12:54:04.180Z,45.77
2022-10-18T12:56:42.554Z,53.10
2022-10-18T12:59:17.106Z,52.27
2022-10-18T13:01:54.723Z,80.97
2022-10-18T13:04:29.186Z,68.27
2022-10-18T13:07:06.411Z,61.87
2022-10-18T13:09:37.364Z,69.23
2022-10-18T13:12:11.620Z,104.93
2022-10-18T13:15:20.520Z,61.67
2022-10-18T13:18:24.350Z,63.97
2022-10-18T13:21:53.808Z,91.77
2022-10-18T13:24:40.856Z,82.03
2022-10-18T13:27:52.500Z,75.23
2022-10-18T13:30:43.092Z,80.70
2022-10-18T13:33:32.696Z,90.27
2022-10-18T13:36:26.131Z,77.60
2022-10-18T13:38:58.422Z,86.63
2022-10-18T13:41:43.088Z,105.30
2022-10-18T13:44:13.385Z,105.50
2022-10-18T13:46:41.674Z,93.03
2022-10-18T13:49:28.806Z,96.70
2022-10-18T13:52:12.443Z,102.77
2022-10-18T13:54:59.210Z,104.30
2022-10-18T13:57:42.851Z,102.33
2022-10-18T14:00:49.277Z,106.90
2022-10-18T14:06:38.094Z,94.17
2022-10-18T14:09:26.443Z,106.77
2022-10-18T14:12:28.675Z,122.70
2022-10-18T14:15:09.267Z,127.10
2022-10-18T14:17:50.682Z,116.70
2022-10-18T14:20:49.459Z,100.40
2022-10-18T14:23:34.103Z,106.37
2022-10-18T14:26:10.540Z,128.00
2022-10-18T14:28:58.599Z,106.90
2022-10-18T14:31:27.773Z,131.90
2022-10-18T14:33:59.018Z,135.07
2022-10-18T14:36:31.643Z,117.80
2022-10-18T14:39:03.334Z,108.47
2022-10-18T14:41:37.382Z,123.80
2022-10-18T14:44:20.209Z,110.37
2022-10-18T14:46:54.544Z,151.73
2022-10-18T14:49:23.674Z,139.97
2022-10-18T14:51:54.181Z,129.00
2022-10-18T14:57:20.906Z,134.03
2022-10-18T14:59:57.821Z,142.97
2022-10-18T15:02:28.011Z,129.03
2022-10-18T15:05:21.612Z,129.47
2022-10-18T15:07:51.769Z,163.47
2022-10-18T15:10:32.078Z,140.20
2022-10-18T15:13:09.625Z,127.13
2022-10-18T15:15:39.832Z,170.40
2022-10-18T15:18:09.202Z,144.40
2022-10-18T15:20:43.561Z,119.33
2022-10-18T15:23:24.925Z,131.90
2022-10-18T15:26:00.780Z,145.63
2022-10-18T15:28:40.257Z,153.10
2022-10-18T15:31:23.505Z,121.47
2022-10-18T15:33:52.274Z,117.43
2022-10-18T15:36:32.515Z,122.30
2022-10-18T15:39:33.366Z,144.93
2022-10-18T15:42:03.543Z,138.70
2022-10-18T15:44:52.070Z,125.13
2022-10-18T15:47:22.925Z,109.93
2022-10-18T15:49:57.438Z,111.83
2022-10-18T15:52:38.891Z,110.47
2022-10-18T15:55:30.911Z,103.77
2022-10-18T15:58:07.669Z,127.07
2022-10-18T16:00:36.061Z,108.87
2022-10-18T16:03:04.623Z,118.27
2022-10-18T16:05:33.013Z,118.80
2022-10-18T16:08:01.412Z,109.50
2022-10-18T16:10:30.200Z,105.30
2022-10-18T16:12:58.563Z,110.20
2022-10-18T16:15:27.013Z,110.83
2022-10-18T16:17:55.397Z,110.77
2022-10-18T16:20:25.681Z,108.37
2022-10-18T16:22:54.124Z,110.70
2022-10-18T16:25:22.610Z,99.17
2022-10-18T16:27:50.956Z,81.27
2022-10-18T16:30:23.601Z,70.27
2022-10-18T16:32:51.927Z,71.67
2022-10-18T16:35:20.290Z,72.60
2022-10-18T16:37:48.763Z,74.93
2022-10-18T16:40:25.832Z,71.80
2022-10-18T16:42:54.222Z,70.60
2022-10-18T16:45:22.757Z,80.57
2022-10-18T16:47:51.109Z,62.40
2022-10-18T16:50:22.707Z,60.57
2022-10-18T16:52:51.077Z,56.87
2022-10-18T16:55:25.694Z,58.83
2022-10-18T16:57:54.100Z,65.83
2022-10-18T17:00:25.594Z,64.43
2022-10-18T17:02:54.042Z,59.87
2022-10-18T17:05:23.933Z,65.20
2022-10-18T17:07:52.519Z,65.53
2022-10-18T17:10:25.124Z,61.80
2022-10-18T17:12:53.905Z,58.40
2022-10-18T17:15:22.261Z,60.30
2022-10-18T17:17:53.495Z,67.80
2022-10-18T17:20:26.866Z,62.20
2022-10-18T17:22:55.885Z,65.93
2022-10-18T17:25:24.270Z,70.37
2022-10-18T17:27:52.638Z,71.97
2022-10-18T17:30:21.094Z,68.33
2022-10-18T17:32:49.551Z,62.90
2022-10-18T17:35:18.054Z,75.07
2022-10-18T17:37:49.719Z,69.43
2022-10-18T17:40:18.306Z,79.83
2022-10-18T17:42:46.672Z,74.97
2022-10-18T17:45:15.164Z,74.60
2022-10-18T17:47:43.492Z,76.83
2022-10-18T17:50:11.912Z,80.20
2022-10-18T17:52:44.951Z,93.33
2022-10-18T17:55:14.325Z,86.77
2022-10-18T17:57:43.943Z,87.20
2022-10-18T18:00:13.826Z,82.77
2022-10-18T18:02:43.215Z,83.87
2022-10-18T18:05:13.384Z,87.37
2022-10-18T18:07:41.841Z,86.53
2022-10-18T18:10:11.717Z,87.13
2022-10-18T18:12:40.134Z,91.50
2022-10-18T18:15:09.539Z,96.70
2022-10-18T18:17:56.000Z,83.60
2022-10-18T18:20:25.493Z,83.17
2022-10-18T18:22:54.191Z,83.30
2022-10-18T18:25:22.563Z,88.63
2022-10-18T18:27:50.995Z,79.87
2022-10-18T18:30:19.491Z,89.70
2022-10-18T18:32:47.864Z,91.00
2022-10-18T18:35:16.375Z,91.70
2022-10-18T18:37:44.752Z,87.03
2022-10-18T18:40:13.196Z,84.03
2022-10-18T18:42:41.597Z,83.30
2022-10-18T18:45:10.109Z,83.90
2022-10-18T18:47:39.507Z,84.47
2022-10-18T18:50:08.448Z,87.17
2022-10-18T18:52:36.796Z,83.77
2022-10-18T18:55:05.574Z,86.00
2022-10-18T18:57:34.113Z,93.73
2022-10-18T19:00:02.738Z,98.63
2022-10-18T19:02:31.097Z,91.37
2022-10-18T19:04:59.504Z,92.47
2022-10-18T19:07:27.836Z,92.80
2022-10-18T19:09:57.377Z,90.57
2022-10-18T19:12:25.776Z,87.40
2022-10-18T19:14:54.112Z,84.73
2022-10-18T19:17:23.337Z,94.90
2022-10-18T19:19:51.810Z,87.03
2022-10-18T19:22:20.163Z,87.87
2022-10-18T19:24:48.509Z,83.33
2022-10-18T19:27:17.039Z,73.07
2022-10-18T19:29:46.838Z,64.87
2022-10-18T19:32:17.676Z,67.93
2022-10-18T19:34:46.122Z,70.00
2022-10-18T19:37:16.208Z,63.13
2022-10-18T19:39:44.783Z,63.67
2022-10-18T19:42:18.693Z,60.23
2022-10-18T19:44:51.118Z,61.67
2022-10-18T19:47:21.270Z,63.13
2022-10-18T19:49:49.621Z,63.47
2022-10-18T19:52:17.994Z,57.53
2022-10-18T19:54:46.489Z,60.67
2022-10-18T19:57:14.884Z,59.83
2022-10-18T19:59:43.239Z,59.97
2022-10-18T20:02:16.021Z,63.47
2022-10-18T20:04:44.591Z,67.23
2022-10-18T20:07:12.952Z,63.97
2022-10-18T20:09:41.404Z,69.33
2022-10-18T20:12:09.858Z,74.47
2022-10-18T20:14:38.186Z,73.33
2022-10-18T20:17:07.118Z,77.33
2022-10-18T20:19:35.531Z,72.83
2022-10-18T20:22:03.918Z,75.00
2022-10-18T20:24:32.334Z,83.47
2022-10-18T20:27:00.695Z,81.80
2022-10-18T20:29:29.122Z,90.20
2022-10-18T20:31:57.658Z,81.73
2022-10-18T20:34:26.909Z,89.77
2022-10-18T20:36:56.389Z,90.37
2022-10-18T20:39:25.041Z,94.57
2022-10-18T20:41:53.425Z,90.37
2022-10-18T20:44:23.374Z,96.67
2022-10-18T20:46:51.839Z,94.40
2022-10-18T20:49:20.330Z,95.90
2022-10-18T20:51:48.706Z,96.73
2022-10-18T20:54:17.130Z,88.67
2022-10-18T20:56:45.526Z,93.63
2022-10-18T20:59:14.622Z,90.67
2022-10-18T21:01:43.334Z,92.30
2022-10-18T21:04:12.071Z,90.00
2022-10-18T21:06:43.519Z,93.73
2022-10-18T21:09:15.345Z,87.97
2022-10-18T21:11:47.092Z,93.53
2022-10-18T21:14:17.798Z,94.20
2022-10-18T21:16:47.316Z,86.23
2022-10-18T21:19:21.661Z,92.13
2022-10-18T21:21:52.177Z,87.77
2022-10-18T21:24:22.174Z,91.63
2022-10-18T21:26:50.662Z,91.37
2022-10-18T21:29:22.296Z,93.10
2022-10-18T21:31:54.141Z,94.03
2022-10-18T21:34:23.017Z,99.50
2022-10-18T21:36:51.390Z,97.70
2022-10-18T21:41:55.867Z,103.80
2022-10-18T21:44:24.382Z,107.17
2022-10-18T21:46:52.816Z,110.23
2022-10-18T21:49:24.157Z,117.20
2022-10-18T21:51:52.577Z,118.93
2022-10-18T21:54:21.021Z,121.77
2022-10-18T21:56:49.414Z,117.77
2022-10-18T21:59:17.922Z,119.63
2022-10-18T22:01:46.647Z,121.97
2022-10-18T22:04:23.828Z,125.13
2022-10-18T22:06:52.601Z,126.10
2022-10-18T22:09:22.040Z,128.20
2022-10-18T22:11:53.287Z,123.63
2022-10-18T22:14:22.902Z,126.73
2022-10-18T22:16:51.847Z,123.80
2022-10-18T22:19:20.574Z,125.93
2022-10-18T22:21:49.226Z,127.57
2022-10-18T22:24:17.737Z,124.97
2022-10-18T22:26:47.313Z,127.97
2022-10-18T22:29:18.530Z,128.67
2022-10-18T22:31:52.875Z,128.50
2022-10-18T22:34:28.267Z,124.00
2022-10-18T22:36:57.167Z,125.47
2022-10-18T22:39:25.717Z,125.97
2022-10-18T22:41:57.085Z,129.20
2022-10-18T22:44:26.237Z,119.70
2022-10-18T22:46:54.601Z,123.80
2022-10-18T22:49:23.413Z,122.17
2022-10-18T22:51:52.088Z,120.97
2022-10-18T22:54:20.858Z,114.80
2022-10-18T22:56:49.356Z,122.93
2022-10-18T22:59:17.805Z,117.70
2022-10-18T23:01:46.219Z,125.10
2022-10-18T23:04:14.585Z,119.83
2022-10-18T23:06:43.272Z,119.33
2022-10-18T23:09:12.802Z,113.43
2022-10-18T23:11:41.147Z,118.47
2022-10-18T23:14:09.566Z,116.93
2022-10-18T23:16:38.062Z,119.43
2022-10-18T23:19:06.469Z,113.50
2022-10-18T23:21:35.497Z,105.33
2022-10-18T23:24:04.258Z,116.40
2022-10-18T23:26:32.922Z,109.00
2022-10-18T23:29:01.451Z,107.20
2022-10-18T23:31:32.961Z,108.37
2022-10-18T23:34:03.856Z,106.50
2022-10-18T23:36:33.530Z,109.00
2022-10-18T23:39:02.314Z,103.20
2022-10-18T23:41:30.954Z,105.73
2022-10-18T23:43:59.324Z,100.73
2022-10-18T23:46:27.717Z,99.13
2022-10-18T23:48:56.173Z,93.07
2022-10-18T23:51:24.597Z,93.10
2022-10-18T23:53:53.021Z,88.80
2022-10-18T23:56:21.509Z,92.27
2022-10-18T23:58:49.878Z,89.53
